sensor_id;sensor_type;location;lat;lon;timestamp;pressure;altitude;pressure_sealevel;temperature;humidity
7918;BME280;4004;42.624;23.386;2023-04-27T00:01:28;93812.91;;;8.28;57.12
7918;BME280;4004;42.624;23.386;2023-04-27T00:03:55;93810.94;;;8.25;57.02
7918;BME280;4004;42.624;23.386;2023-04-27T00:06:22;93816.03;;;8.14;56.73
7918;BME280;4004;42.624;23.386;2023-04-27T00:08:52;93809.06;;;8.09;56.74
7918;BME280;4004;42.624;23.386;2023-04-27T00:11:19;93816.22;;;8.05;56.87
7918;BME280;4004;42.624;23.386;2023-04-27T00:13:45;93827.00;;;8.09;56.77
7918;BME280;4004;42.624;23.386;2023-04-27T00:16:12;93810.16;;;8.08;57.10
7918;BME280;4004;42.624;23.386;2023-04-27T00:18:39;93827.88;;;8.13;57.09
7918;BME280;4004;42.624;23.386;2023-04-27T00:21:07;93818.03;;;8.01;57.14
7918;BME280;4004;42.624;23.386;2023-04-27T00:23:34;93823.44;;;7.89;57.24
7918;BME280;4004;42.624;23.386;2023-04-27T00:26:02;93814.16;;;7.83;57.32
7918;BME280;4004;42.624;23.386;2023-04-27T00:28:29;93815.09;;;7.91;57.23
7918;BME280;4004;42.624;23.386;2023-04-27T00:30:56;93818.78;;;7.86;56.91
7918;BME280;4004;42.624;23.386;2023-04-27T00:33:22;93818.63;;;7.79;56.68
7918;BME280;4004;42.624;23.386;2023-04-27T00:35:49;93816.63;;;7.76;56.90
7918;BME280;4004;42.624;23.386;2023-04-27T00:38:16;93814.75;;;7.76;56.57
7918;BME280;4004;42.624;23.386;2023-04-27T00:40:42;93827.31;;;7.76;56.91
7918;BME280;4004;42.624;23.386;2023-04-27T00:43:11;93816.56;;;7.72;56.98
7918;BME280;4004;42.624;23.386;2023-04-27T00:45:40;93826.72;;;7.66;57.10
7918;BME280;4004;42.624;23.386;2023-04-27T00:48:08;93829.53;;;7.58;57.11
7918;BME280;4004;42.624;23.386;2023-04-27T00:50:35;93820.59;;;7.66;57.52
7918;BME280;4004;42.624;23.386;2023-04-27T00:53:04;93824.78;;;7.51;57.26
7918;BME280;4004;42.624;23.386;2023-04-27T00:55:32;93840.78;;;7.63;57.04
7918;BME280;4004;42.624;23.386;2023-04-27T00:57:58;93841.53;;;7.48;57.66
7918;BME280;4004;42.624;23.386;2023-04-27T01:00:27;93836.78;;;7.41;58.12
7918;BME280;4004;42.624;23.386;2023-04-27T01:02:54;93839.44;;;7.41;57.93
7918;BME280;4004;42.624;23.386;2023-04-27T01:05:21;93834.34;;;7.36;57.72
7918;BME280;4004;42.624;23.386;2023-04-27T01:07:49;93836.59;;;7.34;57.98
7918;BME280;4004;42.624;23.386;2023-04-27T01:10:16;93836.28;;;7.23;58.60
7918;BME280;4004;42.624;23.386;2023-04-27T01:12:43;93838.22;;;7.11;59.11
7918;BME280;4004;42.624;23.386;2023-04-27T01:15:10;93838.72;;;7.00;58.81
7918;BME280;4004;42.624;23.386;2023-04-27T01:17:38;93846.75;;;7.00;58.69
7918;BME280;4004;42.624;23.386;2023-04-27T01:20:06;93842.50;;;6.99;59.29
7918;BME280;4004;42.624;23.386;2023-04-27T01:22:34;93842.50;;;6.99;59.39
7918;BME280;4004;42.624;23.386;2023-04-27T01:25:03;93847.41;;;6.97;59.13
7918;BME280;4004;42.624;23.386;2023-04-27T01:27:30;93830.78;;;7.04;59.08
7918;BME280;4004;42.624;23.386;2023-04-27T01:29:57;93850.75;;;6.94;58.92
7918;BME280;4004;42.624;23.386;2023-04-27T01:32:24;93841.75;;;6.87;59.04
7918;BME280;4004;42.624;23.386;2023-04-27T01:34:51;93853.81;;;6.80;59.30
7918;BME280;4004;42.624;23.386;2023-04-27T01:37:18;93839.88;;;6.75;60.06
7918;BME280;4004;42.624;23.386;2023-04-27T01:39:44;93860.38;;;6.71;59.85
7918;BME280;4004;42.624;23.386;2023-04-27T01:42:13;93844.34;;;6.71;60.22
7918;BME280;4004;42.624;23.386;2023-04-27T01:44:39;93850.56;;;6.75;60.01
7918;BME280;4004;42.624;23.386;2023-04-27T01:47:06;93832.31;;;6.77;60.02
7918;BME280;4004;42.624;23.386;2023-04-27T01:49:33;93847.59;;;6.64;59.65
7918;BME280;4004;42.624;23.386;2023-04-27T01:51:59;93859.50;;;6.54;59.95
7918;BME280;4004;42.624;23.386;2023-04-27T01:54:26;93849.47;;;6.51;59.82
7918;BME280;4004;42.624;23.386;2023-04-27T01:56:53;93852.59;;;6.53;60.10
7918;BME280;4004;42.624;23.386;2023-04-27T01:59:21;93856.41;;;6.52;60.21
7918;BME280;4004;42.624;23.386;2023-04-27T02:01:48;93856.72;;;6.51;60.32
7918;BME280;4004;42.624;23.386;2023-04-27T02:04:14;93852.28;;;6.55;60.25
7918;BME280;4004;42.624;23.386;2023-04-27T02:06:41;93854.81;;;6.51;60.68
7918;BME280;4004;42.624;23.386;2023-04-27T02:09:08;93855.84;;;6.59;59.68
7918;BME280;4004;42.624;23.386;2023-04-27T02:11:35;93845.25;;;6.50;59.88
7918;BME280;4004;42.624;23.386;2023-04-27T02:14:01;93863.63;;;6.52;60.00
7918;BME280;4004;42.624;23.386;2023-04-27T02:16:29;93866.19;;;6.48;59.72
7918;BME280;4004;42.624;23.386;2023-04-27T02:18:56;93865.94;;;6.53;59.79
7918;BME280;4004;42.624;23.386;2023-04-27T02:21:23;93860.59;;;6.53;59.80
7918;BME280;4004;42.624;23.386;2023-04-27T02:23:50;93862.63;;;6.56;59.01
7918;BME280;4004;42.624;23.386;2023-04-27T02:26:17;93862.06;;;6.51;59.37
7918;BME280;4004;42.624;23.386;2023-04-27T02:28:44;93870.84;;;6.51;59.14
7918;BME280;4004;42.624;23.386;2023-04-27T02:31:12;93867.63;;;6.46;59.57
7918;BME280;4004;42.624;23.386;2023-04-27T02:33:40;93858.41;;;6.43;59.99
7918;BME280;4004;42.624;23.386;2023-04-27T02:36:08;93858.28;;;6.39;59.63
7918;BME280;4004;42.624;23.386;2023-04-27T02:38:34;93858.94;;;6.49;59.13
7918;BME280;4004;42.624;23.386;2023-04-27T02:41:01;93859.19;;;6.43;59.57
7918;BME280;4004;42.624;23.386;2023-04-27T02:43:28;93866.41;;;6.43;59.82
7918;BME280;4004;42.624;23.386;2023-04-27T02:45:55;93872.75;;;6.38;59.80
7918;BME280;4004;42.624;23.386;2023-04-27T02:48:21;93871.09;;;6.34;59.60
7918;BME280;4004;42.624;23.386;2023-04-27T02:50:49;93864.31;;;6.36;59.75
7918;BME280;4004;42.624;23.386;2023-04-27T02:53:16;93875.31;;;6.47;59.74
7918;BME280;4004;42.624;23.386;2023-04-27T02:55:46;93873.75;;;6.46;59.45
7918;BME280;4004;42.624;23.386;2023-04-27T02:58:13;93867.97;;;6.56;59.24
7918;BME280;4004;42.624;23.386;2023-04-27T03:00:41;93871.19;;;6.62;58.67
7918;BME280;4004;42.624;23.386;2023-04-27T03:03:08;93877.63;;;6.49;59.41
7918;BME280;4004;42.624;23.386;2023-04-27T03:05:35;93872.09;;;6.41;58.68
7918;BME280;4004;42.624;23.386;2023-04-27T03:08:04;93880.66;;;6.47;58.91
7918;BME280;4004;42.624;23.386;2023-04-27T03:10:30;93892.22;;;6.51;58.92
7918;BME280;4004;42.624;23.386;2023-04-27T03:12:57;93885.09;;;6.55;58.27
7918;BME280;4004;42.624;23.386;2023-04-27T03:15:24;93874.75;;;6.41;59.07
7918;BME280;4004;42.624;23.386;2023-04-27T03:17:50;93888.69;;;6.47;58.80
7918;BME280;4004;42.624;23.386;2023-04-27T03:20:17;93881.13;;;6.49;58.99
7918;BME280;4004;42.624;23.386;2023-04-27T03:22:44;93895.03;;;6.42;58.95
7918;BME280;4004;42.624;23.386;2023-04-27T03:25:12;93892.78;;;6.44;59.01
7918;BME280;4004;42.624;23.386;2023-04-27T03:27:39;93892.44;;;6.46;58.32
7918;BME280;4004;42.624;23.386;2023-04-27T03:30:08;93901.34;;;6.38;58.88
7918;BME280;4004;42.624;23.386;2023-04-27T03:32:35;93906.56;;;6.47;58.76
7918;BME280;4004;42.624;23.386;2023-04-27T03:35:03;93898.34;;;6.52;58.42
7918;BME280;4004;42.624;23.386;2023-04-27T03:37:29;93893.13;;;6.43;58.39
7918;BME280;4004;42.624;23.386;2023-04-27T03:39:57;93905.56;;;6.39;59.14
7918;BME280;4004;42.624;23.386;2023-04-27T03:42:25;93893.66;;;6.49;58.87
7918;BME280;4004;42.624;23.386;2023-04-27T03:44:51;93914.13;;;6.44;59.01
7918;BME280;4004;42.624;23.386;2023-04-27T03:47:18;93894.88;;;6.51;58.58
7918;BME280;4004;42.624;23.386;2023-04-27T03:49:45;93907.25;;;6.43;58.26
7918;BME280;4004;42.624;23.386;2023-04-27T03:52:12;93905.03;;;6.46;58.08
7918;BME280;4004;42.624;23.386;2023-04-27T03:54:38;93906.91;;;6.45;58.54
7918;BME280;4004;42.624;23.386;2023-04-27T03:57:05;93909.59;;;6.45;58.15
7918;BME280;4004;42.624;23.386;2023-04-27T03:59:33;93915.38;;;6.59;57.66
7918;BME280;4004;42.624;23.386;2023-04-27T04:02:00;93921.72;;;6.67;57.65
7918;BME280;4004;42.624;23.386;2023-04-27T04:04:28;93933.16;;;6.92;56.87
7918;BME280;4004;42.624;23.386;2023-04-27T04:06:55;93928.22;;;7.06;56.47
7918;BME280;4004;42.624;23.386;2023-04-27T04:09:22;93926.69;;;7.05;56.13
7918;BME280;4004;42.624;23.386;2023-04-27T04:11:50;93947.75;;;6.95;55.88
7918;BME280;4004;42.624;23.386;2023-04-27T04:14:17;93943.06;;;6.92;55.96
7918;BME280;4004;42.624;23.386;2023-04-27T04:16:45;93947.41;;;6.96;55.51
7918;BME280;4004;42.624;23.386;2023-04-27T04:19:12;93944.38;;;6.98;55.63
7918;BME280;4004;42.624;23.386;2023-04-27T04:21:38;93955.53;;;7.00;55.53
7918;BME280;4004;42.624;23.386;2023-04-27T04:24:06;93942.03;;;7.09;55.55
7918;BME280;4004;42.624;23.386;2023-04-27T04:26:34;93957.63;;;7.06;55.03
7918;BME280;4004;42.624;23.386;2023-04-27T04:29:01;93954.63;;;7.20;54.88
7918;BME280;4004;42.624;23.386;2023-04-27T04:31:28;93955.72;;;7.32;54.13
7918;BME280;4004;42.624;23.386;2023-04-27T04:33:56;93963.34;;;7.45;54.00
7918;BME280;4004;42.624;23.386;2023-04-27T04:36:23;93961.22;;;7.51;53.95
7918;BME280;4004;42.624;23.386;2023-04-27T04:38:51;93961.63;;;7.65;54.24
7918;BME280;4004;42.624;23.386;2023-04-27T04:41:18;93968.34;;;7.87;53.57
7918;BME280;4004;42.624;23.386;2023-04-27T04:43:45;93966.56;;;7.92;52.54
7918;BME280;4004;42.624;23.386;2023-04-27T04:46:13;93975.75;;;7.78;52.46
7918;BME280;4004;42.624;23.386;2023-04-27T04:48:41;93969.69;;;7.81;52.39
7918;BME280;4004;42.624;23.386;2023-04-27T04:51:09;93975.25;;;7.88;52.21
7918;BME280;4004;42.624;23.386;2023-04-27T04:53:35;93989.75;;;7.87;52.54
7918;BME280;4004;42.624;23.386;2023-04-27T04:56:09;93996.38;;;8.06;52.42
7918;BME280;4004;42.624;23.386;2023-04-27T04:58:43;93992.09;;;8.33;51.68
7918;BME280;4004;42.624;23.386;2023-04-27T05:01:10;93990.50;;;8.44;51.38
7918;BME280;4004;42.624;23.386;2023-04-27T05:03:36;94004.88;;;8.52;50.76
7918;BME280;4004;42.624;23.386;2023-04-27T05:06:03;93997.00;;;8.43;50.94
7918;BME280;4004;42.624;23.386;2023-04-27T05:08:32;94006.09;;;8.70;50.46
7918;BME280;4004;42.624;23.386;2023-04-27T05:10:58;94016.53;;;9.23;49.60
7918;BME280;4004;42.624;23.386;2023-04-27T05:13:25;94015.59;;;9.51;48.56
7918;BME280;4004;42.624;23.386;2023-04-27T05:15:53;94013.69;;;9.51;48.37
7918;BME280;4004;42.624;23.386;2023-04-27T05:18:19;94014.19;;;9.57;47.96
7918;BME280;4004;42.624;23.386;2023-04-27T05:20:46;94015.72;;;9.39;48.30
7918;BME280;4004;42.624;23.386;2023-04-27T05:23:13;94022.34;;;9.45;47.59
7918;BME280;4004;42.624;23.386;2023-04-27T05:25:41;94023.91;;;9.46;47.67
7918;BME280;4004;42.624;23.386;2023-04-27T05:28:08;94027.03;;;9.48;47.78
7918;BME280;4004;42.624;23.386;2023-04-27T05:30:36;94021.41;;;9.37;47.82
7918;BME280;4004;42.624;23.386;2023-04-27T05:33:03;94019.44;;;9.34;48.19
7918;BME280;4004;42.624;23.386;2023-04-27T05:35:30;94034.69;;;9.65;47.52
7918;BME280;4004;42.624;23.386;2023-04-27T05:37:57;94024.84;;;9.53;47.82
7918;BME280;4004;42.624;23.386;2023-04-27T05:40:23;94023.72;;;9.54;48.20
7918;BME280;4004;42.624;23.386;2023-04-27T05:42:52;94024.41;;;9.51;47.96
7918;BME280;4004;42.624;23.386;2023-04-27T05:45:19;94019.31;;;9.46;48.22
7918;BME280;4004;42.624;23.386;2023-04-27T05:47:46;94027.50;;;9.34;48.36
7918;BME280;4004;42.624;23.386;2023-04-27T05:50:14;94023.38;;;9.21;48.72
7918;BME280;4004;42.624;23.386;2023-04-27T05:52:41;94026.50;;;9.42;48.50
7918;BME280;4004;42.624;23.386;2023-04-27T05:55:08;94026.25;;;9.47;48.36
7918;BME280;4004;42.624;23.386;2023-04-27T05:57:35;94035.97;;;9.36;48.64
7918;BME280;4004;42.624;23.386;2023-04-27T06:00:04;94022.34;;;9.09;48.53
7918;BME280;4004;42.624;23.386;2023-04-27T06:02:35;94009.34;;;8.96;49.43
7918;BME280;4004;42.624;23.386;2023-04-27T06:05:01;94024.75;;;9.15;49.41
7918;BME280;4004;42.624;23.386;2023-04-27T06:07:28;94020.44;;;9.10;49.16
7918;BME280;4004;42.624;23.386;2023-04-27T06:09:55;94024.41;;;9.00;49.11
7918;BME280;4004;42.624;23.386;2023-04-27T06:12:22;94027.69;;;8.93;49.61
7918;BME280;4004;42.624;23.386;2023-04-27T06:14:49;94024.41;;;9.00;49.62
7918;BME280;4004;42.624;23.386;2023-04-27T06:17:21;94030.06;;;9.46;49.13
7918;BME280;4004;42.624;23.386;2023-04-27T06:19:48;94027.50;;;9.69;48.05
7918;BME280;4004;42.624;23.386;2023-04-27T06:22:16;94023.03;;;9.77;48.07
7918;BME280;4004;42.624;23.386;2023-04-27T06:24:45;94029.09;;;10.09;47.58
7918;BME280;4004;42.624;23.386;2023-04-27T06:27:14;94018.34;;;10.09;46.91
7918;BME280;4004;42.624;23.386;2023-04-27T06:29:41;94022.75;;;9.82;47.66
7918;BME280;4004;42.624;23.386;2023-04-27T06:32:08;94022.50;;;9.87;47.60
7918;BME280;4004;42.624;23.386;2023-04-27T06:34:38;94027.16;;;9.90;47.81
7918;BME280;4004;42.624;23.386;2023-04-27T06:37:06;94031.25;;;10.04;47.89
7918;BME280;4004;42.624;23.386;2023-04-27T06:39:33;94027.84;;;10.26;47.36
7918;BME280;4004;42.624;23.386;2023-04-27T06:42:02;94025.91;;;10.43;47.27
7918;BME280;4004;42.624;23.386;2023-04-27T06:44:29;94025.63;;;10.71;46.02
7918;BME280;4004;42.624;23.386;2023-04-27T06:46:56;94025.03;;;11.04;46.12
7918;BME280;4004;42.624;23.386;2023-04-27T06:49:23;94020.97;;;11.14;45.33
7918;BME280;4004;42.624;23.386;2023-04-27T06:51:51;94031.47;;;11.49;45.03
7918;BME280;4004;42.624;23.386;2023-04-27T06:54:18;94039.44;;;11.69;44.80
7918;BME280;4004;42.624;23.386;2023-04-27T06:56:45;94028.13;;;11.86;44.14
7918;BME280;4004;42.624;23.386;2023-04-27T06:59:11;94028.03;;;11.79;44.18
7918;BME280;4004;42.624;23.386;2023-04-27T07:01:38;94025.50;;;12.20;43.60
7918;BME280;4004;42.624;23.386;2023-04-27T07:04:05;94031.03;;;12.68;42.38
7918;BME280;4004;42.624;23.386;2023-04-27T07:06:32;94020.28;;;13.16;42.13
7918;BME280;4004;42.624;23.386;2023-04-27T07:09:00;94026.53;;;13.27;41.39
7918;BME280;4004;42.624;23.386;2023-04-27T07:11:26;94029.81;;;13.51;40.59
7918;BME280;4004;42.624;23.386;2023-04-27T07:13:53;94031.13;;;13.75;40.12
7918;BME280;4004;42.624;23.386;2023-04-27T07:16:20;94033.03;;;13.67;40.24
7918;BME280;4004;42.624;23.386;2023-04-27T07:18:47;94031.06;;;13.64;40.38
7918;BME280;4004;42.624;23.386;2023-04-27T07:21:14;94020.03;;;13.98;39.66
7918;BME280;4004;42.624;23.386;2023-04-27T07:23:40;94018.19;;;14.09;39.68
7918;BME280;4004;42.624;23.386;2023-04-27T07:26:08;94014.75;;;14.20;39.03
7918;BME280;4004;42.624;23.386;2023-04-27T07:28:35;94032.56;;;14.28;39.02
7918;BME280;4004;42.624;23.386;2023-04-27T07:31:03;94030.28;;;14.51;38.65
7918;BME280;4004;42.624;23.386;2023-04-27T07:33:30;94019.53;;;14.62;38.29
7918;BME280;4004;42.624;23.386;2023-04-27T07:35:56;94037.34;;;14.85;38.05
7918;BME280;4004;42.624;23.386;2023-04-27T07:38:23;94008.72;;;14.59;37.99
7918;BME280;4004;42.624;23.386;2023-04-27T07:40:50;94024.94;;;14.55;38.25
7918;BME280;4004;42.624;23.386;2023-04-27T07:43:18;94031.19;;;14.88;37.83
7918;BME280;4004;42.624;23.386;2023-04-27T07:45:47;94020.00;;;14.97;37.64
7918;BME280;4004;42.624;23.386;2023-04-27T07:48:14;94021.94;;;15.46;36.52
7918;BME280;4004;42.624;23.386;2023-04-27T07:50:40;94011.44;;;15.63;36.52
7918;BME280;4004;42.624;23.386;2023-04-27T07:53:07;94030.72;;;16.19;36.03
7918;BME280;4004;42.624;23.386;2023-04-27T07:55:34;94021.31;;;16.45;35.00
7918;BME280;4004;42.624;23.386;2023-04-27T07:58:01;94024.72;;;16.56;34.67
7918;BME280;4004;42.624;23.386;2023-04-27T08:00:29;94020.06;;;16.60;34.16
7918;BME280;4004;42.624;23.386;2023-04-27T08:02:56;94012.81;;;16.35;34.73
7918;BME280;4004;42.624;23.386;2023-04-27T08:05:23;94022.16;;;16.27;34.71
7918;BME280;4004;42.624;23.386;2023-04-27T08:07:49;94022.59;;;16.19;34.85
7918;BME280;4004;42.624;23.386;2023-04-27T08:10:18;94023.00;;;16.06;34.88
7918;BME280;4004;42.624;23.386;2023-04-27T08:12:44;94029.66;;;15.73;35.31
7918;BME280;4004;42.624;23.386;2023-04-27T08:15:11;94023.47;;;15.83;35.41
7918;BME280;4004;42.624;23.386;2023-04-27T08:17:39;94013.41;;;15.73;35.74
7918;BME280;4004;42.624;23.386;2023-04-27T08:20:07;94018.41;;;15.82;35.78
7918;BME280;4004;42.624;23.386;2023-04-27T08:22:35;94012.16;;;16.03;35.03
7918;BME280;4004;42.624;23.386;2023-04-27T08:25:02;94011.81;;;15.83;34.70
7918;BME280;4004;42.624;23.386;2023-04-27T08:27:29;94018.78;;;15.69;34.66
7918;BME280;4004;42.624;23.386;2023-04-27T08:29:57;94017.66;;;15.38;35.18
7918;BME280;4004;42.624;23.386;2023-04-27T08:32:25;94018.03;;;14.86;35.68
7918;BME280;4004;42.624;23.386;2023-04-27T08:34:54;94014.53;;;14.61;36.45
7918;BME280;4004;42.624;23.386;2023-04-27T08:37:21;94022.56;;;14.46;36.82
7918;BME280;4004;42.624;23.386;2023-04-27T08:39:47;94022.94;;;14.41;37.36
7918;BME280;4004;42.624;23.386;2023-04-27T08:42:14;94023.69;;;14.38;37.37
7918;BME280;4004;42.624;23.386;2023-04-27T08:44:42;94026.38;;;14.27;37.62
7918;BME280;4004;42.624;23.386;2023-04-27T08:47:09;94025.59;;;14.30;37.63
7918;BME280;4004;42.624;23.386;2023-04-27T08:49:36;94013.00;;;13.79;38.31
7918;BME280;4004;42.624;23.386;2023-04-27T08:52:13;94019.22;;;13.87;38.45
7918;BME280;4004;42.624;23.386;2023-04-27T08:54:40;94029.19;;;13.76;38.77
7918;BME280;4004;42.624;23.386;2023-04-27T08:57:09;94027.28;;;13.80;38.59
7918;BME280;4004;42.624;23.386;2023-04-27T08:59:36;94025.44;;;13.95;38.68
7918;BME280;4004;42.624;23.386;2023-04-27T09:02:03;94019.56;;;13.75;38.82
7918;BME280;4004;42.624;23.386;2023-04-27T09:04:36;94015.03;;;13.97;38.47
7918;BME280;4004;42.624;23.386;2023-04-27T09:07:12;94014.50;;;13.73;39.13
7918;BME280;4004;42.624;23.386;2023-04-27T09:09:38;94020.00;;;13.91;38.65
7918;BME280;4004;42.624;23.386;2023-04-27T09:12:13;94010.44;;;14.01;38.39
7918;BME280;4004;42.624;23.386;2023-04-27T09:14:40;94019.34;;;14.16;38.04
7918;BME280;4004;42.624;23.386;2023-04-27T09:17:08;94018.59;;;14.22;37.50
7918;BME280;4004;42.624;23.386;2023-04-27T09:19:35;94012.72;;;13.99;37.95
7918;BME280;4004;42.624;23.386;2023-04-27T09:22:03;94021.63;;;14.06;37.71
7918;BME280;4004;42.624;23.386;2023-04-27T09:24:31;94014.75;;;14.16;37.47
7918;BME280;4004;42.624;23.386;2023-04-27T09:26:58;94015.84;;;14.12;37.39
7918;BME280;4004;42.624;23.386;2023-04-27T09:29:36;94011.22;;;14.08;37.83
7918;BME280;4004;42.624;23.386;2023-04-27T09:32:13;94007.94;;;14.55;37.39
7918;BME280;4004;42.624;23.386;2023-04-27T09:34:40;93999.09;;;14.90;36.33
7918;BME280;4004;42.624;23.386;2023-04-27T09:37:09;94001.03;;;14.82;36.40
7918;BME280;4004;42.624;23.386;2023-04-27T09:39:37;93996.41;;;14.90;36.13
7918;BME280;4004;42.624;23.386;2023-04-27T09:42:04;93991.75;;;15.19;35.74
7918;BME280;4004;42.624;23.386;2023-04-27T09:44:31;93985.94;;;14.96;35.63
7918;BME280;4004;42.624;23.386;2023-04-27T09:46:58;93982.09;;;14.97;35.80
7918;BME280;4004;42.624;23.386;2023-04-27T09:49:27;93977.06;;;15.09;35.14
7918;BME280;4004;42.624;23.386;2023-04-27T09:51:55;93980.94;;;14.90;35.51
7918;BME280;4004;42.624;23.386;2023-04-27T09:54:26;93984.75;;;14.64;36.01
7918;BME280;4004;42.624;23.386;2023-04-27T09:57:02;93987.47;;;14.61;36.21
7918;BME280;4004;42.624;23.386;2023-04-27T09:59:55;93977.75;;;14.49;36.07
7918;BME280;4004;42.624;23.386;2023-04-27T10:02:29;93986.25;;;14.51;36.19
7918;BME280;4004;42.624;23.386;2023-04-27T10:05:23;93982.44;;;14.63;36.04
7918;BME280;4004;42.624;23.386;2023-04-27T10:07:55;93977.78;;;14.56;35.55
7918;BME280;4004;42.624;23.386;2023-04-27T10:10:22;93979.28;;;14.54;36.57
7918;BME280;4004;42.624;23.386;2023-04-27T10:13:00;93973.56;;;14.66;36.02
7918;BME280;4004;42.624;23.386;2023-04-27T10:15:28;93978.63;;;14.85;35.82
7918;BME280;4004;42.624;23.386;2023-04-27T10:17:55;93968.13;;;14.69;36.14
7918;BME280;4004;42.624;23.386;2023-04-27T10:20:30;93966.22;;;14.84;35.49
7918;BME280;4004;42.624;23.386;2023-04-27T10:22:58;93965.47;;;14.95;35.04
7918;BME280;4004;42.624;23.386;2023-04-27T10:25:26;93973.94;;;14.75;35.25
7918;BME280;4004;42.624;23.386;2023-04-27T10:27:55;93970.47;;;14.67;34.52
7918;BME280;4004;42.624;23.386;2023-04-27T10:30:25;93971.59;;;14.63;34.65
7918;BME280;4004;42.624;23.386;2023-04-27T10:32:53;93958.84;;;14.67;35.41
7918;BME280;4004;42.624;23.386;2023-04-27T10:35:21;93975.50;;;14.80;35.15
7918;BME280;4004;42.624;23.386;2023-04-27T10:37:48;93970.84;;;14.80;35.31
7918;BME280;4004;42.624;23.386;2023-04-27T10:40:16;93972.41;;;14.96;35.66
7918;BME280;4004;42.624;23.386;2023-04-27T10:42:44;93968.16;;;14.80;34.85
7918;BME280;4004;42.624;23.386;2023-04-27T10:45:12;93973.19;;;14.82;35.09
7918;BME280;4004;42.624;23.386;2023-04-27T10:47:41;93970.84;;;14.73;34.93
7918;BME280;4004;42.624;23.386;2023-04-27T10:50:10;93973.59;;;15.05;34.48
7918;BME280;4004;42.624;23.386;2023-04-27T10:52:41;93968.94;;;15.20;33.81
7918;BME280;4004;42.624;23.386;2023-04-27T10:55:14;93970.44;;;15.43;34.36
7918;BME280;4004;42.624;23.386;2023-04-27T10:57:46;93955.75;;;15.47;33.66
7918;BME280;4004;42.624;23.386;2023-04-27T11:00:15;93957.69;;;15.54;34.03
7918;BME280;4004;42.624;23.386;2023-04-27T11:02:44;93961.97;;;15.19;34.63
7918;BME280;4004;42.624;23.386;2023-04-27T11:05:18;93952.69;;;15.06;34.47
7918;BME280;4004;42.624;23.386;2023-04-27T11:07:45;93958.47;;;14.76;34.49
7918;BME280;4004;42.624;23.386;2023-04-27T11:10:16;93919.00;;;14.42;35.05
7918;BME280;4004;42.624;23.386;2023-04-27T11:12:43;93948.06;;;14.88;34.65
7918;BME280;4004;42.624;23.386;2023-04-27T11:15:10;93949.97;;;14.84;34.87
7918;BME280;4004;42.624;23.386;2023-04-27T11:17:38;93956.19;;;14.96;34.17
7918;BME280;4004;42.624;23.386;2023-04-27T11:20:08;93956.94;;;15.25;33.87
7918;BME280;4004;42.624;23.386;2023-04-27T11:22:43;93954.97;;;15.40;33.47
7918;BME280;4004;42.624;23.386;2023-04-27T11:25:11;93957.72;;;15.18;33.38
7918;BME280;4004;42.624;23.386;2023-04-27T11:27:39;93956.16;;;15.03;33.78
7918;BME280;4004;42.624;23.386;2023-04-27T11:30:18;93959.25;;;15.05;33.45
7918;BME280;4004;42.624;23.386;2023-04-27T11:32:45;93963.16;;;14.79;33.72
7918;BME280;4004;42.624;23.386;2023-04-27T11:35:14;93955.34;;;14.52;34.11
7918;BME280;4004;42.624;23.386;2023-04-27T11:37:41;93962.22;;;14.24;34.79
7918;BME280;4004;42.624;23.386;2023-04-27T11:40:08;93964.41;;;13.86;34.89
7918;BME280;4004;42.624;23.386;2023-04-27T11:42:36;93969.16;;;14.15;35.31
7918;BME280;4004;42.624;23.386;2023-04-27T11:45:10;93973.03;;;14.24;35.49
7918;BME280;4004;42.624;23.386;2023-04-27T11:47:37;93983.47;;;14.26;36.10
7918;BME280;4004;42.624;23.386;2023-04-27T11:50:07;93971.50;;;14.23;35.52
7918;BME280;4004;42.624;23.386;2023-04-27T11:52:36;93967.66;;;14.28;35.23
7918;BME280;4004;42.624;23.386;2023-04-27T11:55:04;93968.44;;;14.39;35.09
7918;BME280;4004;42.624;23.386;2023-04-27T11:57:34;93982.00;;;14.43;35.28
7918;BME280;4004;42.624;23.386;2023-04-27T12:00:04;93982.06;;;14.61;35.24
7918;BME280;4004;42.624;23.386;2023-04-27T12:02:35;93977.72;;;14.42;35.09
7918;BME280;4004;42.624;23.386;2023-04-27T12:05:04;93985.00;;;14.27;35.36
7918;BME280;4004;42.624;23.386;2023-04-27T12:07:32;93975.75;;;14.28;35.26
7918;BME280;4004;42.624;23.386;2023-04-27T12:10:00;93983.09;;;14.27;35.51
7918;BME280;4004;42.624;23.386;2023-04-27T12:12:28;93979.28;;;14.39;35.02
7918;BME280;4004;42.624;23.386;2023-04-27T12:14:56;93987.47;;;14.57;34.67
7918;BME280;4004;42.624;23.386;2023-04-27T12:17:23;93988.63;;;14.63;34.76
7918;BME280;4004;42.624;23.386;2023-04-27T12:19:50;93991.72;;;14.69;34.47
7918;BME280;4004;42.624;23.386;2023-04-27T12:22:17;93991.38;;;14.74;34.71
7918;BME280;4004;42.624;23.386;2023-04-27T12:24:43;93989.41;;;14.67;34.75
7918;BME280;4004;42.624;23.386;2023-04-27T12:27:11;93978.22;;;14.73;34.57
7918;BME280;4004;42.624;23.386;2023-04-27T12:29:39;93988.25;;;14.72;34.52
7918;BME280;4004;42.624;23.386;2023-04-27T12:32:06;93991.69;;;14.58;35.00
7918;BME280;4004;42.624;23.386;2023-04-27T12:34:33;93988.56;;;14.52;34.78
7918;BME280;4004;42.624;23.386;2023-04-27T12:37:00;93997.53;;;14.64;35.14
7918;BME280;4004;42.624;23.386;2023-04-27T12:39:27;93983.59;;;14.55;34.90
7918;BME280;4004;42.624;23.386;2023-04-27T12:41:54;93992.88;;;14.61;34.66
7918;BME280;4004;42.624;23.386;2023-04-27T12:44:23;93988.25;;;14.76;34.65
7918;BME280;4004;42.624;23.386;2023-04-27T12:46:51;93990.19;;;14.61;34.70
7918;BME280;4004;42.624;23.386;2023-04-27T12:49:18;93985.81;;;14.38;35.19
7918;BME280;4004;42.624;23.386;2023-04-27T12:51:44;93977.69;;;14.31;35.02
7918;BME280;4004;42.624;23.386;2023-04-27T12:54:12;93994.63;;;14.14;35.33
7918;BME280;4004;42.624;23.386;2023-04-27T12:56:39;93995.38;;;14.03;36.12
7918;BME280;4004;42.624;23.386;2023-04-27T12:59:06;93990.31;;;13.98;36.90
7918;BME280;4004;42.624;23.386;2023-04-27T13:01:34;93991.47;;;13.97;36.55
7918;BME280;4004;42.624;23.386;2023-04-27T13:04:02;93995.41;;;14.14;36.58
7918;BME280;4004;42.624;23.386;2023-04-27T13:06:30;93985.34;;;14.04;36.46
7918;BME280;4004;42.624;23.386;2023-04-27T13:08:57;93991.53;;;14.12;36.24
7918;BME280;4004;42.624;23.386;2023-04-27T13:11:24;93988.53;;;14.38;35.82
7918;BME280;4004;42.624;23.386;2023-04-27T13:13:51;93992.38;;;14.26;35.71
7918;BME280;4004;42.624;23.386;2023-04-27T13:16:19;93990.75;;;14.04;36.31
7918;BME280;4004;42.624;23.386;2023-04-27T13:18:48;93991.03;;;13.84;36.19
7918;BME280;4004;42.624;23.386;2023-04-27T13:21:16;93990.97;;;13.74;36.39